Pagina principale
METAR-TAF:

METAR-TAF

Aeroporti :

Aeroporto della Martinica Aimé Césaire

Fort-de-France, Martinica

latitudine: 14-36N, longitudine: 061-00W, altezza: 5 m

Osservazione

Il bollettino è stato emesso 38 minuti fa, alle 06:00 UTC
Vento 9 kt da est/sud-est
Temperature 25°C
Umidità 69%
Pressione 1018 hPa
Visibilità 10 km o più
Nuvoloso ad un'altezza di 3700 ft
Nuvoloso ad un'altezza di 4700 ft

METAR: TFFF 160600Z AUTO 11009KT 9999 BKN037 BKN047 25/19 Q1018 NOSIG

Ora: 02:38 (06:38 UTC)

Previsione

Il bollettino è stato emesso 1 ora e 38 minuti fa, alle 05:00 UTC
Previsione valida dal 16 alle 06 UTC al 17 alle 06 UTC
Vento 8 kt da est/sud-est
Visibilità 10 km o più
Nubi sparse ad un'altezza di 3000 ft
Probabilità 30% :
Temporaneamente
dal 16 alle 10 UTC al 16 alle 16 UTC
Vento 15 kt da est/sud-est con raffiche fino a 25 kt

TAF: TFFF 160500Z 1606/1706 11008KT 9999 SCT030 PROB30 TEMPO 1610/1616 11015G25KT

Osservazioni e previsioni meteorologiche di più di 4000 aeroporti (messaggi METAR e TAF).

Le stazioni disponibili sono rappresentate dai dischi gialli e rossi sulla carta.

Puntare il mouse per vedere il nome della stazione.

Clicca sopra per visualizzare le osservazioni e previsioni meteorologiche.

Per cambiare la mappa : fare clic sui pulsanti verdi con una croce nera per ingrandire, il pulsante verde con un trattino per diminuire, o sulla freccia verde per le mappe adiacenti.


METAR-TAF: